Time;durP1;ratioP1;P1;durP2;ratioP2;P2;SDS_P1;SDS_P2;PMS_P1;PMS_P2;Temp;Humidity;BMP_temperature;BMP_pressure;BME280_temperature;BME280_humidity;BME280_pressure;Samples;Min_cycle;Max_cycle;Signal;HPM_P1;HPM_P2
2022/06/23 00:00:20;;;;;;;5.93;4.20;;;;;;;;;;522627;28;1328;-86
2022/06/23 00:00:37;;;;;;;4.93;3.70;;;;;;;;;;523380;28;1599;-84
2022/06/23 00:00:58;;;;;;;4.90;3.63;;;;;;;;;;524570;28;1529;-84
2022/06/23 00:01:18;;;;;;;5.25;3.70;;;;;;;;;;524873;28;1370;-85
2022/06/23 00:01:42;;;;;;;6.03;4.18;;;;;;;;;;524177;28;1572;-85
2022/06/23 00:02:26;;;;;;;5.65;3.90;;;;;;;;;;524862;28;1461;-85
2022/06/23 00:02:41;;;;;;;5.50;3.88;;;;;;;;;;515787;28;1812;-85
2022/06/23 00:03:00;;;;;;;4.88;3.78;;;;;;;;;;522468;28;1438;-85
2022/06/23 00:03:21;;;;;;;5.10;3.67;;;;;;;;;;525643;28;1441;-86
2022/06/23 00:03:36;;;;;;;5.85;3.85;;;;;;;;;;524760;28;1713;-85
2022/06/23 00:03:54;;;;;;;5.93;3.90;;;;;;;;;;522850;28;1421;-86
2022/06/23 00:04:17;;;;;;;5.50;3.80;;;;;;;;;;521326;28;1393;-85
2022/06/23 00:04:37;;;;;;;4.38;3.78;;;;;;;;;;519107;28;1746;-85
2022/06/23 00:04:58;;;;;;;4.50;3.78;;;;;;;;;;519349;28;1505;-84
2022/06/23 00:05:20;;;;;;;5.85;4.60;;;;;;;;;;520895;28;1447;-85
2022/06/23 00:05:38;;;;;;;5.47;4.50;;;;;;;;;;518941;28;2046;-84
2022/06/23 00:05:57;;;;;;;5.70;4.47;;;;;;;;;;520580;28;1422;-86
2022/06/23 00:06:41;;;;;;;5.78;4.43;;;;;;;;;;522522;28;1594;-85
2022/06/23 00:07:13;;;;;;;5.63;4.20;;;;;;;;;;524345;28;1447;-85
2022/06/23 00:07:32;;;;;;;6.32;3.90;;;;;;;;;;525002;28;1689;-85
2022/06/23 00:07:52;;;;;;;7.70;4.20;;;;;;;;;;524390;28;1558;-86
2022/06/23 00:08:12;;;;;;;5.22;3.80;;;;;;;;;;524519;28;1481;-86
2022/06/23 00:08:28;;;;;;;5.88;4.05;;;;;;;;;;524889;28;1543;-86
2022/06/23 00:08:45;;;;;;;6.18;4.00;;;;;;;;;;522202;28;1505;-85
2022/06/23 00:09:03;;;;;;;5.18;4.20;;;;;;;;;;523255;28;1500;-85
2022/06/23 00:09:35;;;;;;;6.45;4.18;;;;;;;;;;523432;28;1707;-86
2022/06/23 00:09:56;;;;;;;4.68;4.00;;;;;;;;;;526164;28;1413;-85
2022/06/23 00:10:22;;;;;;;5.35;3.80;;;;;;;;;;521610;28;1570;-85
2022/06/23 00:10:39;;;;;;;5.00;3.90;;;;;;;;;;523474;28;1534;-86
2022/06/23 00:11:00;;;;;;;4.80;3.88;;;;;;;;;;520704;28;1509;-85
2022/06/23 00:11:22;;;;;;;4.50;3.90;;;;;;;;;;523114;28;1449;-85
2022/06/23 00:11:49;;;;;;;4.55;3.90;;;;;;;;;;523795;28;1580;-85
2022/06/23 00:12:22;;;;;;;5.38;3.90;;;;;;;;;;526096;28;1555;-85
2022/06/23 00:12:41;;;;;;;5.00;3.72;;;;;;;;;;524617;28;1537;-85
2022/06/23 00:12:57;;;;;;;4.70;3.65;;;;;;;;;;525863;28;1457;-84
2022/06/23 00:13:36;;;;;;;5.27;3.80;;;;;;;;;;523101;28;1859;-85
2022/06/23 00:14:01;;;;;;;4.22;3.78;;;;;;;;;;515443;28;1573;-86
2022/06/23 00:14:17;;;;;;;4.45;3.65;;;;;;;;;;525563;28;1437;-85
2022/06/23 00:14:32;;;;;;;5.07;3.40;;;;;;;;;;523136;28;1771;-86
2022/06/23 00:14:58;;;;;;;5.60;3.67;;;;;;;;;;522048;28;1473;-85
2022/06/23 00:15:27;;;;;;;5.25;4.15;;;;;;;;;;524063;28;1613;-86
2022/06/23 00:15:44;;;;;;;6.57;3.95;;;;;;;;;;521965;28;1485;-86
2022/06/23 00:16:00;;;;;;;5.50;3.75;;;;;;;;;;521864;28;1575;-86
2022/06/23 00:16:26;;;;;;;4.85;3.80;;;;;;;;;;519918;28;1368;-85
2022/06/23 00:16:41;;;;;;;5.75;4.05;;;;;;;;;;521239;28;1459;-85
2022/06/23 00:17:14;;;;;;;6.72;3.85;;;;;;;;;;521732;28;1443;-86
2022/06/23 00:17:34;;;;;;;6.88;3.75;;;;;;;;;;522288;28;1684;-85
2022/06/23 00:17:58;;;;;;;5.60;3.95;;;;;;;;;;522407;28;1649;-85
2022/06/23 00:18:23;;;;;;;4.97;4.00;;;;;;;;;;523416;28;1481;-86
2022/06/23 00:18:38;;;;;;;6.30;3.80;;;;;;;;;;522428;28;1661;-85
2022/06/23 00:18:54;;;;;;;5.13;3.72;;;;;;;;;;523270;28;1425;-84
2022/06/23 00:19:13;;;;;;;4.53;3.53;;;;;;;;;;521796;28;1700;-86
2022/06/23 00:19:28;;;;;;;4.57;3.50;;;;;;;;;;521157;28;1795;-85
2022/06/23 00:19:44;;;;;;;5.13;3.65;;;;;;;;;;522350;28;1543;-86
2022/06/23 00:20:05;;;;;;;6.03;3.70;;;;;;;;;;521809;28;1491;-85
2022/06/23 00:20:46;;;;;;;5.72;3.80;;;;;;;;;;524165;28;1649;-86
2022/06/23 00:21:19;;;;;;;4.40;3.80;;;;;;;;;;517306;28;1575;-85
2022/06/23 00:21:36;;;;;;;4.10;3.70;;;;;;;;;;529025;27;1511;-85
2022/06/23 00:21:53;;;;;;;5.13;3.80;;;;;;;;;;526043;28;1537;-85
2022/06/23 00:22:11;;;;;;;6.05;3.67;;;;;;;;;;526407;28;1615;-85
2022/06/23 00:22:29;;;;;;;4.88;3.42;;;;;;;;;;524025;28;1414;-85
2022/06/23 00:22:50;;;;;;;4.10;3.53;;;;;;;;;;521962;28;1590;-86
2022/06/23 00:23:39;;;;;;;5.15;3.85;;;;;;;;;;521909;28;1638;-86
2022/06/23 00:23:59;;;;;;;4.70;4.00;;;;;;;;;;523185;28;1437;-85
2022/06/23 00:24:20;;;;;;;4.65;3.88;;;;;;;;;;522394;28;1737;-86
2022/06/23 00:24:37;;;;;;;5.20;4.00;;;;;;;;;;524457;28;1577;-86
2022/06/23 00:24:56;;;;;;;4.70;3.92;;;;;;;;;;523682;28;1655;-85
2022/06/23 00:25:47;;;;;;;4.78;3.70;;;;;;;;;;524462;28;1354;-86
2022/06/23 00:26:18;;;;;;;5.60;3.75;;;;;;;;;;519322;28;1563;-86
2022/06/23 00:26:35;;;;;;;5.87;4.20;;;;;;;;;;523820;28;1462;-86
2022/06/23 00:26:51;;;;;;;6.22;4.00;;;;;;;;;;525236;28;1374;-83
2022/06/23 00:27:13;;;;;;;6.75;4.20;;;;;;;;;;526697;28;1511;-86
2022/06/23 00:27:35;;;;;;;6.75;4.35;;;;;;;;;;523935;28;1433;-86
2022/06/23 00:27:50;;;;;;;6.05;4.00;;;;;;;;;;522539;28;1478;-86
2022/06/23 00:28:14;;;;;;;5.83;4.03;;;;;;;;;;522420;28;1439;-85
2022/06/23 00:28:32;;;;;;;5.20;4.00;;;;;;;;;;520598;28;1490;-84
2022/06/23 00:28:52;;;;;;;6.15;4.05;;;;;;;;;;520234;28;1427;-86
2022/06/23 00:29:15;;;;;;;5.75;4.07;;;;;;;;;;519287;28;1506;-86
2022/06/23 00:29:31;;;;;;;5.68;4.03;;;;;;;;;;521806;28;1446;-85
2022/06/23 00:29:48;;;;;;;5.60;4.00;;;;;;;;;;523730;28;1533;-85
2022/06/23 00:30:17;;;;;;;4.82;3.95;;;;;;;;;;523795;28;1466;-84
2022/06/23 00:30:42;;;;;;;5.47;3.80;;;;;;;;;;526649;28;1554;-86
2022/06/23 00:31:04;;;;;;;7.85;4.13;;;;;;;;;;523928;28;1484;-85
2022/06/23 00:31:35;;;;;;;5.13;4.07;;;;;;;;;;523409;28;1629;-86
2022/06/23 00:32:01;;;;;;;7.50;4.03;;;;;;;;;;521743;28;1509;-86
2022/06/23 00:32:17;;;;;;;7.63;4.07;;;;;;;;;;522124;28;1521;-85
2022/06/23 00:32:33;;;;;;;7.07;4.25;;;;;;;;;;519535;28;1573;-86
2022/06/23 00:32:48;;;;;;;6.22;4.35;;;;;;;;;;520591;28;1426;-86
2022/06/23 00:33:16;;;;;;;6.37;4.10;;;;;;;;;;519712;28;1478;-86
2022/06/23 00:33:40;;;;;;;6.90;4.20;;;;;;;;;;519389;28;1490;-85
2022/06/23 00:33:58;;;;;;;7.00;3.90;;;;;;;;;;522180;28;1612;-86
2022/06/23 00:34:16;;;;;;;6.47;3.88;;;;;;;;;;521158;28;1710;-85
2022/06/23 00:34:34;;;;;;;7.82;3.97;;;;;;;;;;521512;28;1733;-85
2022/06/23 00:35:07;;;;;;;8.10;4.20;;;;;;;;;;519914;28;1706;-86
2022/06/23 00:35:22;;;;;;;6.53;4.10;;;;;;;;;;520624;28;1410;-86
2022/06/23 00:35:38;;;;;;;6.97;4.20;;;;;;;;;;519751;28;1422;-85
2022/06/23 00:35:55;;;;;;;6.35;4.15;;;;;;;;;;519791;28;1450;-86
2022/06/23 00:36:25;;;;;;;5.43;3.97;;;;;;;;;;519230;28;1540;-85
2022/06/23 00:36:48;;;;;;;7.68;3.95;;;;;;;;;;522062;28;1569;-86
2022/06/23 00:37:09;;;;;;;6.00;3.90;;;;;;;;;;523424;28;1481;-86
2022/06/23 00:37:25;;;;;;;5.50;3.95;;;;;;;;;;524410;28;1517;-86
2022/06/23 00:37:47;;;;;;;6.13;4.05;;;;;;;;;;523284;28;1516;-85
2022/06/23 00:38:02;;;;;;;5.88;4.07;;;;;;;;;;522833;28;1403;-85
2022/06/23 00:38:25;;;;;;;4.90;4.03;;;;;;;;;;522956;28;1910;-86
2022/06/23 00:38:41;;;;;;;6.13;4.15;;;;;;;;;;523060;28;1438;-86
2022/06/23 00:38:57;;;;;;;8.37;4.20;;;;;;;;;;521624;28;1509;-85
2022/06/23 00:39:50;;;;;;;8.88;4.38;;;;;;;;;;521434;28;1568;-85
2022/06/23 00:40:11;;;;;;;9.25;4.30;;;;;;;;;;525321;28;1968;-86
2022/06/23 00:40:27;;;;;;;8.93;4.18;;;;;;;;;;525986;28;1512;-85
2022/06/23 00:40:43;;;;;;;7.70;4.30;;;;;;;;;;526355;28;1626;-86
2022/06/23 00:40:59;;;;;;;8.02;4.18;;;;;;;;;;526172;28;1502;-85
2022/06/23 00:41:20;;;;;;;9.68;4.60;;;;;;;;;;526345;28;1362;-86
2022/06/23 00:41:37;;;;;;;7.45;4.43;;;;;;;;;;523853;28;1644;-85
2022/06/23 00:41:52;;;;;;;6.63;4.15;;;;;;;;;;524619;28;1544;-85
2022/06/23 00:42:23;;;;;;;7.70;4.30;;;;;;;;;;523070;28;1445;-85
2022/06/23 00:42:49;;;;;;;7.95;4.53;;;;;;;;;;523105;28;1514;-86
2022/06/23 00:43:05;;;;;;;7.87;4.40;;;;;;;;;;523369;28;1606;-86
2022/06/23 00:43:21;;;;;;;8.97;4.43;;;;;;;;;;523840;28;1438;-85
2022/06/23 00:43:37;;;;;;;8.27;4.43;;;;;;;;;;524231;28;1493;-85
2022/06/23 00:43:53;;;;;;;9.13;4.45;;;;;;;;;;521895;28;1902;-84
2022/06/23 00:44:18;;;;;;;8.30;4.40;;;;;;;;;;523711;28;1337;-86
2022/06/23 00:44:33;;;;;;;6.15;4.40;;;;;;;;;;524122;28;1645;-84
2022/06/23 00:45:07;;;;;;;7.70;4.30;;;;;;;;;;521891;28;1688;-85
2022/06/23 00:45:36;;;;;;;8.40;4.25;;;;;;;;;;524586;28;1505;-85
2022/06/23 00:46:09;;;;;;;6.90;4.30;;;;;;;;;;525742;28;1542;-84
2022/06/23 00:46:34;;;;;;;6.28;4.10;;;;;;;;;;527392;27;1467;-86
2022/06/23 00:46:54;;;;;;;6.18;4.10;;;;;;;;;;527702;27;1315;-84
2022/06/23 00:47:17;;;;;;;6.72;3.88;;;;;;;;;;527834;27;1470;-84
2022/06/23 00:47:48;;;;;;;6.35;4.20;;;;;;;;;;525909;28;1386;-85
2022/06/23 00:48:11;;;;;;;6.35;4.18;;;;;;;;;;525863;28;1417;-86
2022/06/23 00:48:31;;;;;;;7.63;4.40;;;;;;;;;;526118;28;1509;-85
2022/06/23 00:48:55;;;;;;;9.02;4.10;;;;;;;;;;525619;28;1512;-85
2022/06/23 00:49:26;;;;;;;8.98;4.50;;;;;;;;;;525677;28;1374;-85
2022/06/23 00:50:00;;;;;;;7.57;4.35;;;;;;;;;;525708;28;1481;-84
2022/06/23 00:50:39;;;;;;;8.43;4.25;;;;;;;;;;526335;27;1599;-85
2022/06/23 00:51:20;;;;;;;7.90;4.82;;;;;;;;;;526043;28;1500;-86
2022/06/23 00:51:45;;;;;;;7.53;4.20;;;;;;;;;;525250;28;1507;-85
2022/06/23 00:52:10;;;;;;;9.93;4.70;;;;;;;;;;525752;28;1530;-85
2022/06/23 00:52:29;;;;;;;6.75;4.07;;;;;;;;;;527194;27;1507;-86
2022/06/23 00:52:51;;;;;;;5.97;3.97;;;;;;;;;;526041;28;1520;-84
2022/06/23 00:53:12;;;;;;;6.07;4.03;;;;;;;;;;526193;28;1668;-85
2022/06/23 00:53:32;;;;;;;8.32;4.07;;;;;;;;;;523676;28;1735;-84
2022/06/23 00:53:50;;;;;;;8.27;3.95;;;;;;;;;;523811;28;1686;-85
2022/06/23 00:54:35;;;;;;;7.53;4.35;;;;;;;;;;524135;28;1679;-86
2022/06/23 00:54:57;;;;;;;6.50;4.30;;;;;;;;;;521901;28;1505;-86
2022/06/23 00:55:24;;;;;;;6.70;4.20;;;;;;;;;;521833;28;1505;-84
2022/06/23 00:55:44;;;;;;;7.30;4.20;;;;;;;;;;522803;28;1444;-86
2022/06/23 00:56:33;;;;;;;8.98;4.47;;;;;;;;;;523816;28;1437;-83
2022/06/23 00:56:54;;;;;;;6.13;4.10;;;;;;;;;;523299;28;1473;-85
2022/06/23 00:57:20;;;;;;;5.78;4.00;;;;;;;;;;525547;28;1884;-85
2022/06/23 00:57:46;;;;;;;5.70;4.07;;;;;;;;;;527366;27;1535;-86
2022/06/23 00:58:16;;;;;;;7.18;4.43;;;;;;;;;;526768;28;1474;-85
2022/06/23 00:58:38;;;;;;;7.75;4.28;;;;;;;;;;523501;28;1961;-86
2022/06/23 00:59:02;;;;;;;7.57;4.47;;;;;;;;;;523687;28;1468;-85
2022/06/23 00:59:29;;;;;;;8.20;4.35;;;;;;;;;;524659;28;1347;-85
2022/06/23 00:59:57;;;;;;;6.82;4.30;;;;;;;;;;521119;28;1565;-86
2022/06/23 01:00:24;;;;;;;6.88;4.22;;;;;;;;;;522091;28;1377;-86
2022/06/23 01:00:41;;;;;;;8.18;4.30;;;;;;;;;;522546;28;1494;-85
2022/06/23 01:01:05;;;;;;;8.50;4.28;;;;;;;;;;521789;28;1596;-86
2022/06/23 01:01:29;;;;;;;9.15;4.63;;;;;;;;;;520856;28;1497;-86
2022/06/23 01:01:51;;;;;;;6.88;4.50;;;;;;;;;;523290;28;1421;-86
2022/06/23 01:02:16;;;;;;;7.20;4.57;;;;;;;;;;524208;28;1491;-85
2022/06/23 01:02:41;;;;;;;6.80;4.28;;;;;;;;;;523727;28;1705;-84
2022/06/23 01:03:02;;;;;;;7.25;4.40;;;;;;;;;;523351;28;1701;-85
2022/06/23 01:03:52;;;;;;;6.78;4.32;;;;;;;;;;522870;28;1746;-86
2022/06/23 01:04:19;;;;;;;6.97;4.20;;;;;;;;;;526604;28;1412;-86
2022/06/23 01:04:46;;;;;;;6.50;4.38;;;;;;;;;;526109;28;1505;-85
2022/06/23 01:05:07;;;;;;;7.43;4.28;;;;;;;;;;526453;28;1736;-85
2022/06/23 01:05:49;;;;;;;7.43;4.10;;;;;;;;;;525605;28;1469;-85
2022/06/23 01:06:05;;;;;;;9.43;4.70;;;;;;;;;;517838;28;1416;-86
2022/06/23 01:06:29;;;;;;;9.73;4.60;;;;;;;;;;521922;28;1464;-85
2022/06/23 01:07:18;;;;;;;9.23;4.50;;;;;;;;;;521914;28;1735;-85
2022/06/23 01:07:46;;;;;;;7.88;4.60;;;;;;;;;;523443;28;1491;-86
2022/06/23 01:08:29;;;;;;;7.85;4.55;;;;;;;;;;522953;28;1570;-84
2022/06/23 01:09:00;;;;;;;8.20;4.32;;;;;;;;;;527791;27;1413;-85
2022/06/23 01:09:34;;;;;;;9.57;4.40;;;;;;;;;;526377;28;1477;-85
2022/06/23 01:10:16;;;;;;;8.10;4.20;;;;;;;;;;528089;27;1504;-85
2022/06/23 01:10:34;;;;;;;9.43;4.40;;;;;;;;;;525793;28;1495;-84
2022/06/23 01:11:00;;;;;;;8.07;4.40;;;;;;;;;;526269;28;1395;-84
2022/06/23 01:11:23;;;;;;;8.65;4.47;;;;;;;;;;525183;28;1660;-85
2022/06/23 01:11:45;;;;;;;7.78;4.30;;;;;;;;;;523727;28;1402;-85
2022/06/23 01:12:12;;;;;;;9.02;4.28;;;;;;;;;;521691;28;1494;-85
2022/06/23 01:12:35;;;;;;;7.72;4.45;;;;;;;;;;523288;28;1388;-85
2022/06/23 01:12:59;;;;;;;9.63;4.43;;;;;;;;;;524730;28;1887;-86
2022/06/23 01:13:30;;;;;;;7.20;4.40;;;;;;;;;;525682;28;1677;-86
2022/06/23 01:13:55;;;;;;;7.65;4.35;;;;;;;;;;527312;27;1715;-85
2022/06/23 01:14:16;;;;;;;8.98;4.32;;;;;;;;;;525931;28;1674;-85
2022/06/23 01:14:40;;;;;;;8.48;4.32;;;;;;;;;;523615;28;1461;-86
2022/06/23 01:15:02;;;;;;;8.23;4.43;;;;;;;;;;520986;28;1557;-85
2022/06/23 01:15:39;;;;;;;8.15;4.50;;;;;;;;;;523347;28;1703;-84
2022/06/23 01:16:23;;;;;;;6.68;4.13;;;;;;;;;;523542;28;1465;-86
2022/06/23 01:16:42;;;;;;;8.30;4.60;;;;;;;;;;518941;28;1455;-84
2022/06/23 01:17:06;;;;;;;7.28;4.45;;;;;;;;;;526504;28;1388;-86
2022/06/23 01:17:44;;;;;;;7.63;4.53;;;;;;;;;;525300;28;1846;-84
2022/06/23 01:18:11;;;;;;;8.38;4.50;;;;;;;;;;526985;27;1445;-85
2022/06/23 01:18:38;;;;;;;7.57;4.50;;;;;;;;;;526076;28;2017;-85
2022/06/23 01:19:28;;;;;;;6.38;4.22;;;;;;;;;;525676;28;1432;-85
2022/06/23 01:19:58;;;;;;;6.45;4.10;;;;;;;;;;523889;28;1668;-84
2022/06/23 01:20:23;;;;;;;6.90;4.23;;;;;;;;;;523860;28;1631;-85
2022/06/23 01:20:47;;;;;;;7.20;4.38;;;;;;;;;;525635;28;1405;-86
2022/06/23 01:21:21;;;;;;;7.30;4.40;;;;;;;;;;525126;28;1536;-85
2022/06/23 01:21:47;;;;;;;7.72;4.10;;;;;;;;;;526925;27;1544;-85
2022/06/23 01:22:05;;;;;;;8.80;4.32;;;;;;;;;;525604;28;1410;-85
2022/06/23 01:22:26;;;;;;;6.47;4.20;;;;;;;;;;523759;28;1652;-85
2022/06/23 01:23:00;;;;;;;6.47;4.20;;;;;;;;;;523242;28;1564;-84
2022/06/23 01:23:28;;;;;;;6.13;4.10;;;;;;;;;;524578;28;1374;-86
2022/06/23 01:23:49;;;;;;;5.78;4.03;;;;;;;;;;521579;28;1529;-85
2022/06/23 01:24:22;;;;;;;5.78;4.15;;;;;;;;;;523676;28;1456;-86
2022/06/23 01:24:56;;;;;;;5.07;4.15;;;;;;;;;;525980;28;1401;-85
2022/06/23 01:25:39;;;;;;;6.90;4.18;;;;;;;;;;525604;28;1499;-86
2022/06/23 01:26:30;;;;;;;7.25;4.50;;;;;;;;;;525836;28;1648;-86
2022/06/23 01:27:07;;;;;;;7.43;4.10;;;;;;;;;;525382;28;1558;-85
2022/06/23 01:27:50;;;;;;;7.50;4.22;;;;;;;;;;526063;28;1491;-85
2022/06/23 01:28:17;;;;;;;8.15;4.40;;;;;;;;;;528111;27;1369;-85
2022/06/23 01:28:38;;;;;;;6.47;4.30;;;;;;;;;;526052;28;1469;-85
2022/06/23 01:29:01;;;;;;;6.55;4.28;;;;;;;;;;527956;27;2075;-86
2022/06/23 01:29:24;;;;;;;7.50;4.13;;;;;;;;;;527453;27;1527;-85
2022/06/23 01:29:40;;;;;;;6.90;4.20;;;;;;;;;;526946;27;1468;-86
2022/06/23 01:30:08;;;;;;;7.63;4.20;;;;;;;;;;528371;27;1455;-85
2022/06/23 01:30:29;;;;;;;6.63;4.00;;;;;;;;;;524778;28;1644;-85
2022/06/23 01:31:03;;;;;;;7.55;4.07;;;;;;;;;;525240;28;1942;-85
2022/06/23 01:31:23;;;;;;;6.93;4.32;;;;;;;;;;524556;28;1378;-85
2022/06/23 01:31:53;;;;;;;7.57;4.15;;;;;;;;;;525170;28;1530;-85
2022/06/23 01:32:19;;;;;;;8.63;4.32;;;;;;;;;;524077;28;1376;-85
2022/06/23 01:32:37;;;;;;;8.25;4.40;;;;;;;;;;521664;28;1463;-85
2022/06/23 01:33:14;;;;;;;7.38;4.30;;;;;;;;;;521449;28;1545;-85
2022/06/23 01:33:57;;;;;;;7.93;4.07;;;;;;;;;;520345;28;1432;-85
2022/06/23 01:34:21;;;;;;;8.60;4.43;;;;;;;;;;522099;28;1528;-86
2022/06/23 01:34:49;;;;;;;8.68;4.60;;;;;;;;;;521528;28;1559;-86
2022/06/23 01:35:37;;;;;;;9.20;4.70;;;;;;;;;;522118;28;1552;-85
2022/06/23 01:36:01;;;;;;;7.18;4.43;;;;;;;;;;521411;28;1419;-85
2022/06/23 01:36:23;;;;;;;5.93;4.30;;;;;;;;;;522064;28;1525;-85
2022/06/23 01:36:41;;;;;;;7.88;4.57;;;;;;;;;;526021;28;1614;-84
2022/06/23 01:37:22;;;;;;;7.80;4.53;;;;;;;;;;523982;28;1483;-85
2022/06/23 01:37:58;;;;;;;7.47;4.20;;;;;;;;;;523952;28;1522;-86
2022/06/23 01:38:34;;;;;;;6.68;3.95;;;;;;;;;;519860;28;1589;-85
2022/06/23 01:39:10;;;;;;;7.00;4.40;;;;;;;;;;524763;28;1467;-85
2022/06/23 01:39:47;;;;;;;8.02;4.50;;;;;;;;;;523973;28;1482;-85
2022/06/23 01:40:23;;;;;;;7.35;4.30;;;;;;;;;;525140;28;1541;-85
2022/06/23 01:40:55;;;;;;;7.80;4.32;;;;;;;;;;524324;28;1494;-86
2022/06/23 01:41:18;;;;;;;7.72;4.28;;;;;;;;;;522596;28;1553;-86
2022/06/23 01:41:42;;;;;;;7.13;4.32;;;;;;;;;;522150;28;1399;-86
2022/06/23 01:42:13;;;;;;;7.32;4.00;;;;;;;;;;522904;28;1612;-85
2022/06/23 01:42:39;;;;;;;7.55;4.55;;;;;;;;;;522506;28;1391;-85
2022/06/23 01:43:17;;;;;;;7.85;4.22;;;;;;;;;;524345;28;1891;-86
2022/06/23 01:43:43;;;;;;;6.93;4.47;;;;;;;;;;527328;27;1460;-84
2022/06/23 01:44:08;;;;;;;7.45;4.10;;;;;;;;;;528000;27;1558;-85
2022/06/23 01:44:28;;;;;;;8.10;4.40;;;;;;;;;;527534;27;1383;-86
2022/06/23 01:44:51;;;;;;;7.07;4.50;;;;;;;;;;525982;28;1599;-86
2022/06/23 01:45:17;;;;;;;7.45;4.32;;;;;;;;;;523523;28;1431;-85
2022/06/23 01:45:38;;;;;;;6.03;4.25;;;;;;;;;;522500;28;1458;-85
2022/06/23 01:46:00;;;;;;;5.82;4.10;;;;;;;;;;519543;28;1447;-86
2022/06/23 01:46:24;;;;;;;6.82;4.38;;;;;;;;;;518483;28;1530;-85
2022/06/23 01:46:42;;;;;;;6.20;4.32;;;;;;;;;;520818;28;1395;-85
2022/06/23 01:47:00;;;;;;;5.68;4.20;;;;;;;;;;520383;28;1431;-86
2022/06/23 01:47:22;;;;;;;5.85;4.20;;;;;;;;;;521420;28;1458;-86
2022/06/23 01:47:46;;;;;;;5.80;4.18;;;;;;;;;;521259;28;1544;-85
2022/06/23 01:48:51;;;;;;;5.75;4.03;;;;;;;;;;521477;28;1482;-86
2022/06/23 01:49:21;;;;;;;5.57;4.20;;;;;;;;;;525770;28;1438;-85
2022/06/23 01:49:42;;;;;;;5.90;4.47;;;;;;;;;;527296;27;1421;-85
2022/06/23 01:50:12;;;;;;;7.82;4.50;;;;;;;;;;529270;27;1443;-85
2022/06/23 01:50:36;;;;;;;8.80;4.80;;;;;;;;;;530765;27;1442;-85
2022/06/23 01:50:53;;;;;;;6.25;4.55;;;;;;;;;;530607;27;1480;-86
2022/06/23 01:51:30;;;;;;;6.85;4.57;;;;;;;;;;528310;27;1695;-86
2022/06/23 01:51:46;;;;;;;6.75;4.40;;;;;;;;;;527434;27;1454;-86
2022/06/23 01:52:10;;;;;;;7.83;4.70;;;;;;;;;;527701;27;1594;-86
2022/06/23 01:52:26;;;;;;;6.00;4.60;;;;;;;;;;527615;27;1417;-85
2022/06/23 01:52:44;;;;;;;5.30;4.50;;;;;;;;;;524736;28;1873;-86
2022/06/23 01:53:25;;;;;;;5.28;4.40;;;;;;;;;;525342;28;1877;-85
2022/06/23 01:53:41;;;;;;;5.65;4.50;;;;;;;;;;518228;28;1581;-85
2022/06/23 01:54:16;;;;;;;6.22;4.50;;;;;;;;;;525875;28;1448;-87
2022/06/23 01:54:34;;;;;;;7.13;4.78;;;;;;;;;;526393;28;1551;-85
2022/06/23 01:55:14;;;;;;;7.82;4.70;;;;;;;;;;525909;28;1559;-86
2022/06/23 01:55:50;;;;;;;7.03;4.60;;;;;;;;;;523853;28;1453;-85
2022/06/23 01:56:14;;;;;;;5.68;4.30;;;;;;;;;;521633;28;1462;-86
2022/06/23 01:56:53;;;;;;;6.18;4.50;;;;;;;;;;523060;28;1553;-86
2022/06/23 01:57:14;;;;;;;6.45;4.55;;;;;;;;;;519138;28;1569;-86
2022/06/23 01:57:37;;;;;;;5.53;4.50;;;;;;;;;;521164;28;1653;-84
2022/06/23 01:58:04;;;;;;;6.72;4.80;;;;;;;;;;522090;28;1403;-86
2022/06/23 01:58:22;;;;;;;6.55;4.60;;;;;;;;;;523013;28;1910;-84
2022/06/23 01:59:24;;;;;;;5.73;4.60;;;;;;;;;;523527;28;1422;-86
2022/06/23 01:59:55;;;;;;;6.00;4.40;;;;;;;;;;528644;27;1480;-85
2022/06/23 02:00:19;;;;;;;7.57;4.90;;;;;;;;;;526072;28;1714;-85
2022/06/23 02:00:42;;;;;;;8.25;5.03;;;;;;;;;;527521;27;1471;-85
2022/06/23 02:01:00;;;;;;;7.22;4.90;;;;;;;;;;528121;27;1464;-86
2022/06/23 02:01:34;;;;;;;6.38;4.90;;;;;;;;;;525786;28;1382;-85
2022/06/23 02:01:55;;;;;;;5.53;4.70;;;;;;;;;;525305;28;1517;-86
2022/06/23 02:02:10;;;;;;;6.47;4.47;;;;;;;;;;526618;28;1583;-85
2022/06/23 02:02:35;;;;;;;6.87;4.83;;;;;;;;;;525694;28;1652;-85
2022/06/23 02:02:59;;;;;;;7.22;4.80;;;;;;;;;;525237;28;1563;-86
2022/06/23 02:03:17;;;;;;;6.18;4.60;;;;;;;;;;525497;28;1478;-86
2022/06/23 02:03:40;;;;;;;6.63;4.70;;;;;;;;;;526149;28;1456;-86
2022/06/23 02:04:02;;;;;;;6.10;4.68;;;;;;;;;;524253;28;1711;-86
2022/06/23 02:04:35;;;;;;;5.85;4.88;;;;;;;;;;523684;28;1608;-86
2022/06/23 02:05:24;;;;;;;7.18;5.38;;;;;;;;;;520816;28;1558;-86
2022/06/23 02:05:53;;;;;;;6.85;4.85;;;;;;;;;;524159;28;1487;-85
2022/06/23 02:06:24;;;;;;;7.90;4.90;;;;;;;;;;525023;28;1516;-86
2022/06/23 02:06:55;;;;;;;7.07;4.72;;;;;;;;;;527202;27;1437;-85
2022/06/23 02:07:19;;;;;;;6.75;4.90;;;;;;;;;;526317;28;2129;-84
2022/06/23 02:07:40;;;;;;;6.20;5.00;;;;;;;;;;527374;27;2245;-86
2022/06/23 02:08:11;;;;;;;6.00;4.80;;;;;;;;;;525231;28;1610;-85
2022/06/23 02:08:42;;;;;;;7.93;5.07;;;;;;;;;;522604;28;1506;-84
2022/06/23 02:09:09;;;;;;;6.40;4.82;;;;;;;;;;523439;28;1517;-84
2022/06/23 02:09:37;;;;;;;6.72;5.00;;;;;;;;;;523233;28;1751;-85
2022/06/23 02:10:01;;;;;;;5.72;4.78;;;;;;;;;;523431;28;1447;-84
2022/06/23 02:10:35;;;;;;;7.00;5.00;;;;;;;;;;522229;28;1475;-85
2022/06/23 02:11:00;;;;;;;6.25;4.95;;;;;;;;;;521052;28;1614;-85
2022/06/23 02:11:41;;;;;;;6.82;4.72;;;;;;;;;;522208;28;1737;-86
2022/06/23 02:11:56;;;;;;;6.40;4.77;;;;;;;;;;525733;28;1393;-85
2022/06/23 02:12:24;;;;;;;6.80;4.90;;;;;;;;;;526195;28;1461;-85
2022/06/23 02:12:50;;;;;;;6.47;4.82;;;;;;;;;;523505;28;1418;-84
2022/06/23 02:13:10;;;;;;;6.43;5.00;;;;;;;;;;524163;28;1528;-86
2022/06/23 02:13:55;;;;;;;7.07;4.97;;;;;;;;;;526271;28;1827;-85
2022/06/23 02:14:48;;;;;;;10.40;5.47;;;;;;;;;;526320;27;1484;-86
2022/06/23 02:15:14;;;;;;;7.45;5.20;;;;;;;;;;527913;27;1424;-85
2022/06/23 02:15:55;;;;;;;6.55;4.82;;;;;;;;;;527658;27;1342;-85
2022/06/23 02:16:30;;;;;;;8.35;5.50;;;;;;;;;;525291;28;1472;-85
2022/06/23 02:16:52;;;;;;;6.28;4.95;;;;;;;;;;517955;28;1545;-85
2022/06/23 02:17:21;;;;;;;5.95;5.03;;;;;;;;;;522186;28;1776;-85
2022/06/23 02:17:37;;;;;;;6.45;5.18;;;;;;;;;;523641;28;1492;-85
2022/06/23 02:17:58;;;;;;;7.00;5.00;;;;;;;;;;523797;28;1469;-85
2022/06/23 02:18:17;;;;;;;7.18;5.00;;;;;;;;;;525964;28;1663;-84
2022/06/23 02:19:09;;;;;;;5.63;4.95;;;;;;;;;;523728;28;1913;-86
2022/06/23 02:19:39;;;;;;;6.28;5.00;;;;;;;;;;524504;28;1822;-86
2022/06/23 02:20:00;;;;;;;6.75;5.20;;;;;;;;;;525573;28;1498;-86
2022/06/23 02:20:24;;;;;;;7.37;5.13;;;;;;;;;;523876;28;1551;-86
2022/06/23 02:20:46;;;;;;;6.70;5.23;;;;;;;;;;523175;28;1736;-85
2022/06/23 02:21:05;;;;;;;6.55;5.13;;;;;;;;;;523635;28;1579;-85
2022/06/23 02:21:28;;;;;;;6.47;5.00;;;;;;;;;;524738;28;1637;-86
2022/06/23 02:22:09;;;;;;;6.55;5.15;;;;;;;;;;523570;28;1573;-85
2022/06/23 02:22:42;;;;;;;5.63;5.13;;;;;;;;;;523995;28;1406;-84
2022/06/23 02:23:16;;;;;;;5.72;4.90;;;;;;;;;;527489;27;1595;-84
2022/06/23 02:23:36;;;;;;;7.78;5.25;;;;;;;;;;526234;28;1731;-86
2022/06/23 02:23:58;;;;;;;7.05;5.20;;;;;;;;;;522655;28;1600;-85
2022/06/23 02:24:25;;;;;;;6.35;5.00;;;;;;;;;;523851;28;1486;-85
2022/06/23 02:25:10;;;;;;;7.03;5.45;;;;;;;;;;525006;28;1529;-85
2022/06/23 02:25:32;;;;;;;6.10;5.25;;;;;;;;;;524739;28;1468;-86
2022/06/23 02:26:23;;;;;;;6.43;4.93;;;;;;;;;;527572;27;1633;-86
2022/06/23 02:26:54;;;;;;;5.57;4.70;;;;;;;;;;526395;28;1354;-85
2022/06/23 02:27:22;;;;;;;5.50;5.00;;;;;;;;;;526398;28;1552;-85
2022/06/23 02:28:14;;;;;;;6.10;5.00;;;;;;;;;;525307;28;1545;-85
2022/06/23 02:28:43;;;;;;;6.97;5.10;;;;;;;;;;524416;28;1368;-86
2022/06/23 02:29:11;;;;;;;6.22;5.00;;;;;;;;;;525605;28;1552;-85
2022/06/23 02:29:40;;;;;;;7.50;5.30;;;;;;;;;;523045;28;1459;-84
2022/06/23 02:30:03;;;;;;;6.13;5.30;;;;;;;;;;524428;28;1469;-85
2022/06/23 02:30:32;;;;;;;6.25;5.07;;;;;;;;;;522297;28;1571;-85
2022/06/23 02:30:59;;;;;;;7.32;5.43;;;;;;;;;;521288;28;1565;-84
2022/06/23 02:31:31;;;;;;;5.88;4.97;;;;;;;;;;519701;28;1528;-85
2022/06/23 02:31:55;;;;;;;6.97;5.20;;;;;;;;;;522543;28;1421;-86
2022/06/23 02:32:15;;;;;;;6.15;5.18;;;;;;;;;;524371;28;1490;-85
2022/06/23 02:32:49;;;;;;;6.65;5.15;;;;;;;;;;523484;28;1493;-86
2022/06/23 02:33:16;;;;;;;7.85;5.00;;;;;;;;;;523589;28;1823;-85
2022/06/23 02:33:41;;;;;;;6.40;4.97;;;;;;;;;;521232;28;1509;-85
2022/06/23 02:34:26;;;;;;;8.10;5.35;;;;;;;;;;521382;28;1514;-85
2022/06/23 02:34:45;;;;;;;8.63;5.10;;;;;;;;;;522335;28;1485;-85
2022/06/23 02:35:18;;;;;;;7.22;5.18;;;;;;;;;;523000;28;1422;-86
2022/06/23 02:35:43;;;;;;;7.30;5.30;;;;;;;;;;523557;28;1497;-85
2022/06/23 02:36:33;;;;;;;7.40;5.22;;;;;;;;;;524231;28;1639;-85
2022/06/23 02:37:07;;;;;;;8.18;5.00;;;;;;;;;;523762;28;1606;-85
2022/06/23 02:37:55;;;;;;;6.47;5.05;;;;;;;;;;522790;28;1374;-85
2022/06/23 02:38:16;;;;;;;7.57;4.95;;;;;;;;;;525199;28;1556;-85
2022/06/23 02:38:54;;;;;;;8.57;5.10;;;;;;;;;;525170;28;1959;-85
2022/06/23 02:39:31;;;;;;;7.70;5.03;;;;;;;;;;525307;28;1497;-85
2022/06/23 02:39:51;;;;;;;7.50;5.30;;;;;;;;;;525663;28;1527;-85
2022/06/23 02:40:16;;;;;;;7.10;5.13;;;;;;;;;;526057;28;1558;-85
2022/06/23 02:40:54;;;;;;;7.18;5.00;;;;;;;;;;523111;28;1548;-85
2022/06/23 02:41:18;;;;;;;7.18;5.03;;;;;;;;;;521864;28;1260;-85
2022/06/23 02:41:40;;;;;;;7.28;5.00;;;;;;;;;;521843;28;1561;-84
2022/06/23 02:42:01;;;;;;;7.05;5.10;;;;;;;;;;521993;28;1685;-86
2022/06/23 02:42:36;;;;;;;8.10;4.82;;;;;;;;;;524380;28;1485;-85
2022/06/23 02:43:00;;;;;;;8.63;5.32;;;;;;;;;;523376;28;1450;-85